Data for 02/04/2016

Time Sea-Level Adjusted Pressure Absolute Pressure Temperature Relative Humidity Dew Point   
(mb) (inHg) (mb) (inHg) (C) (F) (%) (C) (F)
00:05 1020 30.12 849 25.07 -10.1 13.8 62 -16 3.1
00:10 1020 30.12 849 25.07 -9.6 14.7 60 -16 3.3
00:15 1020 30.12 849 25.07 -9.3 15.2 57 -16.4 2.4
00:20 1020 30.12 849 25.07 -8.9 16.1 56 -16.2 2.8
00:25 1020 30.12 849 25.07 -8.1 17.4 53 -16.1 3
00:30 1020 30.12 849 25.07 -8.7 16.3 56 -15.9 3.4
00:35 1020 30.12 849 25.07 -8.5 16.8 54 -16.2 2.8
00:40 1020 30.12 849 25.07 -8.4 16.8 55 -16 3.2
00:45 1020 30.12 849 25.07 -9.3 15.3 58 -16.1 3
00:50 1020 30.12 849 25.07 -9.4 15 57 -16.4 2.6
00:55 1020 30.12 849 25.07 -8.9 15.9 56 -16.2 2.9
01:00 1020 30.12 849 25.07 -8.9 16 57 -15.9 3.4
01:05 1020 30.12 849 25.07 -8.8 16.1 57 -15.9 3.3
01:10 1020 30.12 849 25.07 -8.7 16.4 56 -15.9 3.3
01:15 1020 30.12 849 25.07 -8.8 16.3 57 -15.8 3.6
01:20 1019 30.09 849 25.07 -9.3 15.3 59 -15.8 3.5
01:25 1019 30.09 849 25.07 -9.9 14.3 61 -16.1 3
01:30 1019 30.09 849 25.07 -9.7 14.6 59 -16.2 2.8
01:35 1019 30.09 849 25.07 -9.2 15.4 57 -16.3 2.6
01:40 1019 30.09 849 25.07 -9 15.8 56 -16.2 2.9
01:45 1019 30.09 848 25.04 -9.2 15.5 57 -16.2 2.9
01:50 1019 30.09 848 25.04 -9.1 15.5 56 -16.3 2.7
01:55 1019 30.09 848 25.04 -9 15.9 55 -16.4 2.6
02:00 1019 30.09 848 25.04 -9 15.9 55 -16.3 2.6
02:05 1019 30.09 848 25.04 -9.1 15.6 57 -16.2 2.8
02:10 1019 30.09 848 25.04 -9.5 14.8 57 -16.5 2.3
02:15 1019 30.09 848 25.04 -9.8 14.4 59 -16.4 2.4
02:20 1019 30.09 848 25.04 -9.9 14.2 58 -16.7 2
02:25 1019 30.09 848 25.04 -9.2 15.5 56 -16.4 2.5
02:30 1019 30.09 848 25.04 -8.9 16 55 -16.3 2.6
02:35 1019 30.09 848 25.04 -8.5 16.7 54 -16.3 2.7
02:40 1019 30.09 849 25.07 -8.6 16.5 57 -15.6 3.9
02:45 1019 30.09 849 25.07 -8.6 16.6 57 -15.6 3.8
02:50 1019 30.09 848 25.04 -9.4 15.2 60 -15.8 3.5
02:55 1019 30.09 848 25.04 -9.8 14.3 61 -16 3.2
03:00 1019 30.09 849 25.07 -10 14.1 65 -15.4 4.2
03:05 1019 30.09 849 25.07 -9.8 14.4 64 -15.3 4.4
03:10 1019 30.09 849 25.07 -9.4 15.1 61 -15.6 4
03:15 1020 30.12 849 25.07 -9.3 15.2 60 -15.7 3.8
03:20 1020 30.12 849 25.07 -9.5 14.9 61 -15.7 3.8
03:25 1020 30.12 849 25.07 -10.1 13.8 62 -16 3.2
03:30 1019 30.09 849 25.07 -10.5 13.1 64 -16 3.2
03:35 1020 30.12 849 25.07 -10.5 13 65 -15.9 3.4
03:40 1020 30.12 849 25.07 -10.3 13.5 64 -15.9 3.4
03:45 1020 30.12 849 25.07 -10.1 13.9 64 -15.7 3.7
03:50 1020 30.12 849 25.07 -10 14 63 -15.8 3.5
03:55 1020 30.12 849 25.07 -9.9 14.2 63 -15.7 3.7
04:00 1020 30.12 849 25.07 -9.4 15.2 59 -16 3.3
04:05 1020 30.12 849 25.07 -9.4 15.1 58 -16.1 3
04:10 1020 30.12 849 25.07 -8.8 16.2 57 -15.9 3.4
04:15 1020 30.12 849 25.07 -8.6 16.6 56 -15.8 3.5
04:20 1020 30.12 849 25.07 -8.4 16.9 56 -15.7 3.8
04:25 1019 30.09 849 25.07 -8.9 16.1 59 -15.6 4
04:30 1019 30.09 849 25.07 -9 15.9 58 -15.7 3.7
04:35 1019 30.09 849 25.07 -8.8 16.2 58 -15.7 3.8
04:40 1019 30.09 849 25.07 -8.7 16.4 58 -15.5 4
04:45 1019 30.09 849 25.07 -8.7 16.3 58 -15.5 4.2
04:50 1019 30.09 849 25.07 -8.7 16.4 59 -15.3 4.5
04:55 1019 30.09 848 25.04 -8.6 16.6 59 -15.1 4.8
05:00 1019 30.09 848 25.04 -8.4 16.8 59 -15 5
05:05 1019 30.09 848 25.04 -8.2 17.2 58 -15.1 4.8
05:10 1019 30.09 848 25.04 -7.8 18 56 -15 4.9
05:15 1019 30.09 848 25.04 -7.7 18.2 57 -14.9 5.2
05:20 1019 30.09 848 25.04 -7.4 18.7 55 -14.9 5.2
05:25 1019 30.09 848 25.04 -7.1 19.2 54 -14.9 5.2
05:30 1019 30.09 848 25.04 -7.3 19 55 -14.7 5.5
05:35 1019 30.09 849 25.07 -7.3 18.9 56 -14.7 5.6
05:40 1019 30.09 849 25.07 -7.1 19.1 56 -14.6 5.7
05:45 1019 30.09 849 25.07 -7.2 19.1 58 -14.2 6.5
05:50 1019 30.09 849 25.07 -7.2 19 58 -14.2 6.4
05:55 1019 30.09 849 25.07 -7.2 19 57 -14.3 6.3
06:00 1019 30.09 849 25.07 -7.2 19 57 -14.4 6.1
06:05 1019 30.09 849 25.07 -7 19.4 56 -14.4 6.1
06:10 1020 30.12 849 25.07 -6.9 19.5 59 -13.7 7.3
06:15 1020 30.12 849 25.07 -7 19.4 55 -14.5 5.8
06:20 1020 30.12 849 25.07 -6.5 20.2 58 -13.5 7.7
06:25 1020 30.12 849 25.07 -6.9 19.6 59 -13.5 7.6
06:30 1020 30.12 849 25.07 -7 19.5 59 -13.6 7.5
06:35 1020 30.12 849 25.07 -6.9 19.5 59 -13.7 7.4
06:40 1020 30.12 849 25.07 -6.6 20 58 -13.7 7.3
06:45 1020 30.12 849 25.07 -6.6 20.2 59 -13.3 8
06:50 1020 30.12 849 25.07 -6.5 20.3 57 -13.8 7.2
06:55 1020 30.12 849 25.07 -6.4 20.6 57 -13.4 7.8
07:00 1020 30.12 849 25.07 -6.4 20.5 57 -13.5 7.8
07:05 1020 30.12 849 25.07 -6.4 20.4 62 -12.6 9.3
07:10 1020 30.12 849 25.07 -6.6 20.1 61 -12.9 8.9
07:15 1020 30.12 849 25.07 -6.7 19.9 63 -12.6 9.3
07:20 1020 30.12 849 25.07 -6.8 19.8 64 -12.5 9.5
07:25 1020 30.12 849 25.07 -6.8 19.7 61 -13.1 8.4
07:30 1020 30.12 849 25.07 -6.7 20 61 -13 8.7
07:35 1020 30.12 849 25.07 -6.6 20.2 59 -13.3 8.1
07:40 1020 30.12 849 25.07 -6.1 21 56 -13.6 7.5
07:45 1020 30.12 849 25.07 -5.7 21.7 59 -12.5 9.5
07:50 1020 30.12 849 25.07 -5.7 21.7 58 -12.8 9
07:55 1020 30.12 849 25.07 -5.6 21.9 58 -12.7 9.1
08:00 1020 30.12 849 25.07 -6 21.2 60 -12.5 9.5
08:05 1020 30.12 849 25.07 -6.1 21 59 -12.8 9
08:10 1020 30.12 850 25.1 -6.1 21.1 60 -12.6 9.3
08:15 1020 30.12 849 25.07 -6 21.1 61 -12.4 9.7
08:20 1020 30.12 849 25.07 -6.1 21 62 -12.2 10
08:25 1020 30.12 849 25.07 -6.3 20.7 64 -12.1 10.2
08:30 1020 30.12 850 25.1 -6.3 20.6 63 -12.3 9.8
08:35 1020 30.12 850 25.1 -6.2 20.9 62 -12.2 10
08:40 1020 30.12 850 25.1 -6 21.1 62 -12.1 10.2
08:45 1020 30.12 849 25.07 -6 21.3 62 -12 10.3
08:50 1020 30.12 849 25.07 -5.9 21.4 63 -11.9 10.6
08:55 1020 30.12 849 25.07 -5.9 21.4 61 -12.2 10
09:00 1020 30.12 849 25.07 -5.8 21.6 63 -11.7 10.9
09:05 1020 30.12 850 25.1 -5.8 21.6 63 -11.8 10.7
09:10 1020 30.12 850 25.1 -5.7 21.8 62 -11.8 10.8
09:15 1020 30.12 850 25.1 -5.6 21.9 62 -11.7 11
09:20 1020 30.12 850 25.1 -5.5 22.1 60 -12 10.4
09:25 1020 30.12 849 25.07 -5.3 22.5 59 -12.1 10.2
09:30 1020 30.12 849 25.07 -5 23 60 -11.6 11.2
09:35 1020 30.12 849 25.07 -4.8 23.4 60 -11.4 11.4
09:40 1020 30.12 849 25.07 -4.5 23.9 58 -11.6 11.1
09:45 1020 30.12 849 25.07 -4.4 24.2 58 -11.5 11.4
09:50 1020 30.12 849 25.07 -4.3 24.2 58 -11.4 11.5
09:55 1020 30.12 850 25.1 -4.4 24.1 59 -11.2 11.8
10:00 1020 30.12 850 25.1 -4.3 24.3 59 -11.2 11.9
10:05 1020 30.12 850 25.1 -4.1 24.6 59 -11 12.2
10:10 1020 30.12 850 25.1 -3.9 25 59 -10.9 12.4
10:15 1021 30.15 850 25.1 -3.7 25.3 58 -10.8 12.5
10:20 1021 30.15 850 25.1 -3.4 25.8 58 -10.6 12.9
10:25 1021 30.15 850 25.1 -3.2 26.2 57 -10.5 13.1
10:30 1021 30.15 850 25.1 -3.1 26.5 56 -10.7 12.8
10:35 1021 30.15 850 25.1 -2.9 26.9 56 -10.5 13.1
10:40 1021 30.15 850 25.1 -3.1 26.5 55 -10.8 12.5
10:45 1021 30.15 850 25.1 -3 26.6 56 -10.7 12.8
10:50 1021 30.15 850 25.1 -2.8 27 55 -10.7 12.8
10:55 1021 30.15 850 25.1 -2.6 27.4 53 -10.8 12.6
11:00 1021 30.15 850 25.1 -2.4 27.8 53 -10.6 12.9
11:05 1021 30.15 850 25.1 -2 28.3 51 -10.8 12.6
11:10 1021 30.15 850 25.1 -1.7 28.9 52 -10.4 13.2
11:15 1021 30.15 850 25.1 -1.4 29.4 50 -10.6 13
11:20 1021 30.15 850 25.1 -1.4 29.5 50 -10.6 12.9
11:25 1021 30.15 850 25.1 -1.3 29.7 49 -10.6 13
11:30 1021 30.15 850 25.1 -1.2 29.8 49 -10.6 13
11:35 1021 30.15 850 25.1 -0.4 31.2 46 -10.7 12.8
11:40 1021 30.15 850 25.1 0 32 47 -9.9 14.2
11:45 1021 30.15 850 25.1 -0.6 30.9 48 -10.3 13.5
11:50 1021 30.15 850 25.1 -0.8 30.5 48 -10.5 13
11:55 1021 30.15 850 25.1 -0.1 31.7 45 -10.7 12.8
12:00 1021 30.15 850 25.1 0.5 32.9 44 -10.3 13.5
12:05 1021 30.15 850 25.1 0.7 33.3 43 -10.5 13.1
12:10 1021 30.15 850 25.1 0.9 33.7 43 -10.3 13.4
12:15 1021 30.15 850 25.1 0.8 33.5 43 -10.3 13.5
12:20 1021 30.15 850 25.1 0.7 33.3 43 -10.4 13.2
12:25 1021 30.15 850 25.1 0.9 33.7 42 -10.5 13.2
12:30 1021 30.15 850 25.1 1.1 34 46 -9.3 15.2
12:35 1021 30.15 850 25.1 0.9 33.7 45 -9.8 14.4
12:40 1021 30.15 850 25.1 0.8 33.5 43 -10.3 13.5
12:45 1021 30.15 850 25.1 0.5 32.9 47 -9.6 14.8
12:50 1021 30.15 850 25.1 1 33.8 44 -9.9 14.2
12:55 1021 30.15 850 25.1 1.3 34.3 44 -9.7 14.5
13:00 1020 30.12 850 25.1 1.8 35.3 41 -10 14
13:05 1020 30.12 850 25.1 1.1 34.1 45 -9.6 14.6
13:10 1020 30.12 850 25.1 1.9 35.3 42 -9.6 14.7
13:15 1020 30.12 850 25.1 1.7 35.1 42 -9.8 14.4
13:20 1020 30.12 850 25.1 1.9 35.4 42 -9.8 14.3
13:25 1020 30.12 850 25.1 1.3 34.4 45 -9.4 15
13:30 1020 30.12 850 25.1 1.2 34.2 45 -9.5 15
13:35 1020 30.12 849 25.07 0.9 33.6 45 -9.7 14.5
13:40 1020 30.12 849 25.07 -0 31.9 47 -10 13.9
13:45 1020 30.12 849 25.07 0.4 32.6 46 -10 13.9
13:50 1020 30.12 849 25.07 1 33.8 44 -10 14
13:55 1020 30.12 849 25.07 1.3 34.3 43 -9.9 14.1
14:00 1020 30.12 849 25.07 1.6 34.9 43 -9.7 14.6
14:05 1020 30.12 849 25.07 1.8 35.2 41 -10.1 13.8
14:10 1020 30.12 849 25.07 1.5 34.6 43 -9.9 14.2
14:15 1020 30.12 849 25.07 1.5 34.6 45 -9.3 15.2
14:20 1020 30.12 849 25.07 0.9 33.6 46 -9.5 15
14:25 1020 30.12 849 25.07 0.9 33.6 44 -10 14
14:30 1020 30.12 849 25.07 1.2 34.1 43 -10 14
14:35 1020 30.12 849 25.07 0.9 33.7 46 -9.5 14.9
14:40 1020 30.12 849 25.07 1 33.8 45 -9.7 14.6
14:45 1020 30.12 849 25.07 1.2 34.1 44 -9.8 14.3
14:50 1020 30.12 849 25.07 1.7 35 42 -9.8 14.3
14:55 1020 30.12 849 25.07 1.9 35.4 43 -9.4 15.1
15:00 1020 30.12 849 25.07 2.2 35.9 42 -9.5 14.9
15:05 1020 30.12 849 25.07 2.1 35.8 43 -9.3 15.2
15:10 1020 30.12 849 25.07 1.7 35 48 -8.3 17.1
15:15 1020 30.12 849 25.07 0.8 33.5 46 -9.5 14.8
15:20 1020 30.12 849 25.07 0.5 33 48 -9.3 15.2
15:25 1020 30.12 849 25.07 1 33.9 46 -9.3 15.3
15:30 1020 30.12 849 25.07 1.3 34.3 46 -9.1 15.6
15:35 1020 30.12 849 25.07 1.3 34.3 47 -8.8 16.1
15:40 1020 30.12 849 25.07 1.5 34.7 47 -8.8 16.2
15:45 1020 30.12 849 25.07 1.5 34.8 45 -9.1 15.6
15:50 1020 30.12 849 25.07 1.5 34.7 45 -9.1 15.7
15:55 1020 30.12 849 25.07 1.5 34.7 46 -9.1 15.7
16:00 1020 30.12 849 25.07 1.5 34.7 46 -8.9 16
16:05 1020 30.12 849 25.07 1.5 34.7 45 -9.1 15.7
16:10 1020 30.12 849 25.07 1.6 34.8 47 -8.7 16.4
16:15 1020 30.12 849 25.07 1.7 35.1 44 -9.2 15.5
16:20 1020 30.12 849 25.07 1.6 34.9 46 -8.7 16.3
16:25 1020 30.12 849 25.07 1.5 34.7 46 -8.9 16
16:30 1020 30.12 849 25.07 1.5 34.7 45 -9.3 15.2
16:35 1020 30.12 849 25.07 1.5 34.7 45 -9.1 15.6
16:40 1020 30.12 849 25.07 1.3 34.4 47 -8.8 16.1
16:45 1020 30.12 849 25.07 1.4 34.5 47 -8.8 16.2
16:50 1020 30.12 849 25.07 1.4 34.5 47 -8.8 16.1
16:55 1020 30.12 849 25.07 1.6 34.9 45 -9.1 15.6
17:00 1020 30.12 849 25.07 1.5 34.7 45 -9.1 15.6
17:05 1020 30.12 850 25.1 1.4 34.5 47 -8.9 16.1
17:10 1020 30.12 850 25.1 1.3 34.4 47 -8.7 16.3
17:15 1021 30.15 850 25.1 1.3 34.4 47 -8.7 16.4
17:20 1021 30.15 850 25.1 1.2 34.2 49 -8.5 16.8
17:25 1021 30.15 850 25.1 1.1 34 49 -8.5 16.7
17:30 1021 30.15 850 25.1 1.1 34 49 -8.3 17
17:35 1021 30.15 850 25.1 1 33.8 49 -8.6 16.5
17:40 1021 30.15 850 25.1 0.9 33.6 50 -8.3 17
17:45 1021 30.15 850 25.1 0.8 33.5 49 -8.6 16.6
17:50 1021 30.15 850 25.1 0.8 33.5 50 -8.4 16.9
17:55 1021 30.15 850 25.1 0.8 33.5 47 -9.2 15.5
18:00 1021 30.15 850 25.1 0.9 33.7 48 -8.9 15.9
18:05 1021 30.15 850 25.1 0.8 33.5 50 -8.4 16.9
18:10 1021 30.15 850 25.1 0.7 33.3 49 -8.7 16.3
18:15 1021 30.15 850 25.1 0.7 33.3 50 -8.7 16.4
18:20 1021 30.15 850 25.1 0.7 33.3 49 -8.9 16
18:25 1021 30.15 850 25.1 0.7 33.3 49 -8.7 16.3
18:30 1021 30.15 850 25.1 0.7 33.3 48 -9.2 15.4
18:35 1021 30.15 850 25.1 0.8 33.5 49 -8.7 16.3
18:40 1021 30.15 850 25.1 0.7 33.2 50 -8.6 16.5
18:45 1021 30.15 850 25.1 0.5 33 51 -8.5 16.7
18:50 1021 30.15 851 25.13 0.5 33 50 -8.8 16.2
18:55 1021 30.15 851 25.13 0.6 33 48 -9.1 15.6
19:00 1022 30.18 851 25.13 0.7 33.2 49 -8.9 16
19:05 1022 30.18 851 25.13 0.6 33.2 49 -8.8 16.2
19:10 1022 30.18 851 25.13 0.6 33.1 50 -8.7 16.4
19:15 1022 30.18 851 25.13 0.6 33 49 -9 15.9
19:20 1022 30.18 851 25.13 0.6 33.1 48 -9.3 15.3
19:25 1022 30.18 851 25.13 0.7 33.3 48 -9.2 15.4
19:30 1022 30.18 851 25.13 0.8 33.4 48 -9.1 15.6
19:35 1022 30.18 851 25.13 0.7 33.3 49 -8.8 16.2
19:40 1022 30.18 851 25.13 0.5 32.9 50 -8.7 16.3
19:45 1022 30.18 851 25.13 0.4 32.7 51 -8.6 16.5
19:50 1022 30.18 851 25.13 0.3 32.6 50 -8.8 16.1
19:55 1022 30.18 851 25.13 0.4 32.7 48 -9.4 15.1
20:00 1022 30.18 852 25.16 0.5 33 49 -9.1 15.6
20:05 1022 30.18 852 25.16 0.4 32.8 50 -8.7 16.3
20:10 1022 30.18 852 25.16 0.3 32.5 52 -8.6 16.5
20:15 1023 30.21 852 25.16 0.2 32.3 52 -8.7 16.4
20:20 1023 30.21 852 25.16 0.1 32.2 52 -8.7 16.3
20:25 1023 30.21 852 25.16 0 32 52 -8.7 16.3
20:30 1023 30.21 852 25.16 -0 31.9 53 -8.6 16.5
20:35 1023 30.21 852 25.16 -0.1 31.9 53 -8.5 16.7
20:40 1023 30.21 852 25.16 -0.1 31.8 53 -8.6 16.6
20:45 1023 30.21 852 25.16 -0.1 31.9 53 -8.5 16.7
20:50 1023 30.21 852 25.16 -0.1 31.8 54 -8.3 17
20:55 1023 30.21 852 25.16 -0.1 31.8 53 -8.4 16.8
21:00 1023 30.21 852 25.16 -0.1 31.9 54 -8.3 17.1
21:05 1023 30.21 852 25.16 -0.1 31.8 54 -8.4 16.9
21:10 1023 30.21 852 25.16 -0.1 31.8 53 -8.5 16.7
21:15 1023 30.21 852 25.16 -0 32 53 -8.5 16.7
21:20 1023 30.21 852 25.16 0.1 32.1 52 -8.6 16.5
21:25 1023 30.21 853 25.19 0.2 32.3 50 -9 15.8
21:30 1023 30.21 853 25.19 0.2 32.4 52 -8.6 16.4
21:35 1023 30.21 853 25.19 0.1 32.2 52 -8.6 16.5
21:40 1024 30.24 853 25.19 -0 31.9 54 -8.4 16.9
21:45 1024 30.24 853 25.19 -0.1 31.9 53 -8.4 16.8
21:50 1024 30.24 853 25.19 0 32 52 -8.6 16.5
21:55 1024 30.24 853 25.19 0.2 32.3 51 -8.9 16
22:00 1024 30.24 853 25.19 0.3 32.5 53 -8.1 17.4
22:05 1024 30.24 853 25.19 -0 31.9 56 -7.7 18.1
22:10 1024 30.24 853 25.19 -0.3 31.5 56 -8 17.5
22:15 1024 30.24 853 25.19 -0.2 31.6 54 -8.5 16.8
22:20 1024 30.24 853 25.19 -0.1 31.8 53 -8.7 16.4
22:25 1024 30.24 853 25.19 0 32 51 -9 15.9
22:30 1024 30.24 853 25.19 0.1 32.2 51 -8.9 16
22:35 1024 30.24 853 25.19 0.1 32.1 51 -8.9 15.9
22:40 1024 30.24 853 25.19 -0 31.9 53 -8.6 16.5
22:45 1024 30.24 853 25.19 -0.1 31.8 53 -8.6 16.6
22:50 1024 30.24 853 25.19 -0.2 31.6 54 -8.5 16.6
22:55 1024 30.24 853 25.19 -0.2 31.6 53 -8.8 16.2
23:00 1024 30.24 853 25.19 -0.2 31.7 51 -9 15.8
23:05 1024 30.24 854 25.22 -0.1 31.9 51 -9 15.8
23:10 1024 30.24 854 25.22 0 32 51 -9 15.9
23:15 1024 30.24 854 25.22 0 32 52 -8.8 16.2
23:20 1024 30.24 854 25.22 -0.1 31.8 51 -9 15.8
23:25 1024 30.24 854 25.22 -0.2 31.7 52 -9 15.8
23:30 1024 30.24 854 25.22 -0.2 31.6 52 -9.1 15.7
23:35 1025 30.27 854 25.22 -0.1 31.7 51 -9.1 15.7
23:40 1025 30.27 854 25.22 -0.1 31.8 53 -8.6 16.6
23:45 1025 30.27 854 25.22 -0.4 31.3 61 -7 19.3
23:50 1025 30.27 854 25.22 -0.6 30.9 61 -7.1 19.2
23:55 1025 30.27 854 25.22 -0.6 31 58 -7.9 17.8
24:00 1025 30.27 854 25.22 -0.7 30.7 59 -7.9 17.8